sensor_id;sensor_type;location;lat;lon;timestamp;pressure;altitude;pressure_sealevel;temperature;humidity
46303;BME280;32029;51.358;5.628;2023-11-21T00:00:14;100793.38;;;10.45;100.00
46303;BME280;32029;51.358;5.628;2023-11-21T00:02:44;100784.50;;;10.43;100.00
46303;BME280;32029;51.358;5.628;2023-11-21T00:05:14;100786.88;;;10.46;100.00
46303;BME280;32029;51.358;5.628;2023-11-21T00:07:42;100797.78;;;10.54;100.00
46303;BME280;32029;51.358;5.628;2023-11-21T00:10:11;100805.81;;;10.55;100.00
46303;BME280;32029;51.358;5.628;2023-11-21T00:12:41;100781.31;;;10.54;100.00
46303;BME280;32029;51.358;5.628;2023-11-21T00:15:09;100793.25;;;10.61;100.00
46303;BME280;32029;51.358;5.628;2023-11-21T00:17:38;100793.31;;;10.68;100.00
46303;BME280;32029;51.358;5.628;2023-11-21T00:20:06;100789.81;;;10.59;100.00
46303;BME280;32029;51.358;5.628;2023-11-21T00:22:34;100791.25;;;10.70;100.00
46303;BME280;32029;51.358;5.628;2023-11-21T00:25:02;100790.56;;;10.68;100.00
46303;BME280;32029;51.358;5.628;2023-11-21T00:27:31;100801.44;;;10.76;100.00
46303;BME280;32029;51.358;5.628;2023-11-21T00:29:58;100795.88;;;10.69;100.00
46303;BME280;32029;51.358;5.628;2023-11-21T00:32:25;100810.75;;;10.75;100.00
46303;BME280;32029;51.358;5.628;2023-11-21T00:34:52;100805.94;;;10.77;100.00
46303;BME280;32029;51.358;5.628;2023-11-21T00:37:19;100810.84;;;10.82;100.00
46303;BME280;32029;51.358;5.628;2023-11-21T00:39:47;100807.31;;;10.88;100.00
46303;BME280;32029;51.358;5.628;2023-11-21T00:42:13;100809.97;;;10.96;100.00
46303;BME280;32029;51.358;5.628;2023-11-21T00:44:40;100799.66;;;10.98;100.00
46303;BME280;32029;51.358;5.628;2023-11-21T00:47:07;100810.16;;;11.09;100.00
46303;BME280;32029;51.358;5.628;2023-11-21T00:49:35;100807.78;;;11.06;100.00
46303;BME280;32029;51.358;5.628;2023-11-21T00:52:02;100801.25;;;11.07;100.00
46303;BME280;32029;51.358;5.628;2023-11-21T00:54:30;100804.47;;;11.11;100.00
46303;BME280;32029;51.358;5.628;2023-11-21T00:56:57;100806.63;;;11.15;100.00
46303;BME280;32029;51.358;5.628;2023-11-21T00:59:24;100815.53;;;11.17;100.00
46303;BME280;32029;51.358;5.628;2023-11-21T01:01:52;100807.31;;;11.17;100.00
46303;BME280;32029;51.358;5.628;2023-11-21T01:04:21;100816.88;;;11.21;100.00
46303;BME280;32029;51.358;5.628;2023-11-21T01:06:48;100828.41;;;11.32;100.00
46303;BME280;32029;51.358;5.628;2023-11-21T01:09:16;100826.22;;;11.27;100.00
46303;BME280;32029;51.358;5.628;2023-11-21T01:11:45;100827.63;;;11.38;100.00
46303;BME280;32029;51.358;5.628;2023-11-21T01:14:13;100825.72;;;11.38;100.00
46303;BME280;32029;51.358;5.628;2023-11-21T01:16:40;100820.66;;;11.20;100.00
46303;BME280;32029;51.358;5.628;2023-11-21T01:19:08;100838.09;;;11.27;100.00
46303;BME280;32029;51.358;5.628;2023-11-21T01:21:36;100837.69;;;11.31;100.00
46303;BME280;32029;51.358;5.628;2023-11-21T01:24:04;100840.44;;;11.31;100.00
46303;BME280;32029;51.358;5.628;2023-11-21T01:26:33;100851.63;;;11.29;100.00
46303;BME280;32029;51.358;5.628;2023-11-21T01:29:01;100845.19;;;11.22;100.00
46303;BME280;32029;51.358;5.628;2023-11-21T01:31:29;100836.19;;;11.13;100.00
46303;BME280;32029;51.358;5.628;2023-11-21T01:33:57;100841.59;;;11.07;100.00
46303;BME280;32029;51.358;5.628;2023-11-21T01:36:32;100849.81;;;11.07;100.00
46303;BME280;32029;51.358;5.628;2023-11-21T01:39:00;100845.66;;;10.96;100.00
46303;BME280;32029;51.358;5.628;2023-11-21T01:41:28;100846.72;;;10.95;100.00
46303;BME280;32029;51.358;5.628;2023-11-21T01:43:55;100853.63;;;10.91;100.00
46303;BME280;32029;51.358;5.628;2023-11-21T01:46:24;100859.69;;;11.01;100.00
46303;BME280;32029;51.358;5.628;2023-11-21T01:48:52;100830.22;;;10.80;100.00
46303;BME280;32029;51.358;5.628;2023-11-21T01:51:20;100864.41;;;10.77;100.00
46303;BME280;32029;51.358;5.628;2023-11-21T01:53:48;100856.63;;;10.66;100.00
46303;BME280;32029;51.358;5.628;2023-11-21T01:56:16;100857.56;;;10.59;100.00
46303;BME280;32029;51.358;5.628;2023-11-21T01:58:43;100857.75;;;10.57;100.00
46303;BME280;32029;51.358;5.628;2023-11-21T02:01:11;100841.00;;;10.52;100.00
46303;BME280;32029;51.358;5.628;2023-11-21T02:03:38;100847.88;;;10.48;100.00
46303;BME280;32029;51.358;5.628;2023-11-21T02:06:09;100850.06;;;10.52;100.00
46303;BME280;32029;51.358;5.628;2023-11-21T02:08:36;100858.88;;;10.48;100.00
46303;BME280;32029;51.358;5.628;2023-11-21T02:11:05;100845.22;;;10.40;100.00
46303;BME280;32029;51.358;5.628;2023-11-21T02:13:33;100849.00;;;10.39;100.00
46303;BME280;32029;51.358;5.628;2023-11-21T02:16:00;100852.41;;;10.41;100.00
46303;BME280;32029;51.358;5.628;2023-11-21T02:18:27;100866.38;;;10.54;100.00
46303;BME280;32029;51.358;5.628;2023-11-21T02:20:56;100865.50;;;10.53;100.00
46303;BME280;32029;51.358;5.628;2023-11-21T02:23:23;100861.53;;;10.56;100.00
46303;BME280;32029;51.358;5.628;2023-11-21T02:25:58;100862.84;;;10.60;100.00
46303;BME280;32029;51.358;5.628;2023-11-21T02:28:26;100883.69;;;10.54;100.00
46303;BME280;32029;51.358;5.628;2023-11-21T02:30:53;100878.75;;;10.50;100.00
46303;BME280;32029;51.358;5.628;2023-11-21T02:33:25;100878.34;;;10.53;100.00
46303;BME280;32029;51.358;5.628;2023-11-21T02:35:53;100871.28;;;10.59;100.00
46303;BME280;32029;51.358;5.628;2023-11-21T02:38:21;100885.97;;;10.66;100.00
46303;BME280;32029;51.358;5.628;2023-11-21T02:40:49;100882.88;;;10.69;100.00
46303;BME280;32029;51.358;5.628;2023-11-21T02:43:17;100892.03;;;10.76;100.00
46303;BME280;32029;51.358;5.628;2023-11-21T02:45:44;100881.91;;;10.76;100.00
46303;BME280;32029;51.358;5.628;2023-11-21T02:48:11;100895.56;;;10.85;100.00
46303;BME280;32029;51.358;5.628;2023-11-21T02:50:38;100900.00;;;10.86;100.00
46303;BME280;32029;51.358;5.628;2023-11-21T02:53:05;100903.41;;;10.88;100.00
46303;BME280;32029;51.358;5.628;2023-11-21T02:55:33;100898.31;;;10.85;100.00
46303;BME280;32029;51.358;5.628;2023-11-21T02:58:03;100893.06;;;10.75;100.00
46303;BME280;32029;51.358;5.628;2023-11-21T03:00:33;100884.00;;;10.74;100.00
46303;BME280;32029;51.358;5.628;2023-11-21T03:03:01;100890.81;;;10.78;100.00
46303;BME280;32029;51.358;5.628;2023-11-21T03:05:28;100891.19;;;10.75;100.00
46303;BME280;32029;51.358;5.628;2023-11-21T03:07:55;100873.09;;;10.66;100.00
46303;BME280;32029;51.358;5.628;2023-11-21T03:10:24;100896.03;;;10.73;100.00
46303;BME280;32029;51.358;5.628;2023-11-21T03:12:52;100888.16;;;10.70;100.00
46303;BME280;32029;51.358;5.628;2023-11-21T03:15:20;100897.16;;;10.79;100.00
46303;BME280;32029;51.358;5.628;2023-11-21T03:17:47;100902.47;;;10.81;100.00
46303;BME280;32029;51.358;5.628;2023-11-21T03:20:15;100903.31;;;10.81;100.00
46303;BME280;32029;51.358;5.628;2023-11-21T03:22:43;100892.97;;;10.68;100.00
46303;BME280;32029;51.358;5.628;2023-11-21T03:25:12;100912.19;;;10.83;100.00
46303;BME280;32029;51.358;5.628;2023-11-21T03:27:40;100917.69;;;10.83;100.00
46303;BME280;32029;51.358;5.628;2023-11-21T03:30:09;100908.31;;;10.77;100.00
46303;BME280;32029;51.358;5.628;2023-11-21T03:32:37;100912.31;;;10.90;100.00
46303;BME280;32029;51.358;5.628;2023-11-21T03:35:04;100913.16;;;10.90;100.00
46303;BME280;32029;51.358;5.628;2023-11-21T03:37:33;100920.72;;;10.88;100.00
46303;BME280;32029;51.358;5.628;2023-11-21T03:40:01;100915.88;;;10.75;100.00
46303;BME280;32029;51.358;5.628;2023-11-21T03:42:31;100918.22;;;10.64;100.00
46303;BME280;32029;51.358;5.628;2023-11-21T03:44:59;100919.06;;;10.64;100.00
46303;BME280;32029;51.358;5.628;2023-11-21T03:47:27;100935.66;;;10.71;100.00
46303;BME280;32029;51.358;5.628;2023-11-21T03:49:55;100937.25;;;10.65;100.00
46303;BME280;32029;51.358;5.628;2023-11-21T03:52:24;100930.03;;;10.64;100.00
46303;BME280;32029;51.358;5.628;2023-11-21T03:54:51;100918.97;;;10.58;100.00
46303;BME280;32029;51.358;5.628;2023-11-21T03:57:18;100916.88;;;10.60;100.00
46303;BME280;32029;51.358;5.628;2023-11-21T03:59:45;100922.84;;;10.63;100.00
46303;BME280;32029;51.358;5.628;2023-11-21T04:02:13;100925.31;;;10.58;100.00
46303;BME280;32029;51.358;5.628;2023-11-21T04:04:41;100926.28;;;10.65;100.00
46303;BME280;32029;51.358;5.628;2023-11-21T04:07:08;100939.44;;;10.70;100.00
46303;BME280;32029;51.358;5.628;2023-11-21T04:09:36;100931.88;;;10.72;100.00
46303;BME280;32029;51.358;5.628;2023-11-21T04:12:03;100931.78;;;10.65;100.00
46303;BME280;32029;51.358;5.628;2023-11-21T04:14:30;100926.66;;;10.62;100.00
46303;BME280;32029;51.358;5.628;2023-11-21T04:16:58;100941.88;;;10.65;100.00
46303;BME280;32029;51.358;5.628;2023-11-21T04:19:25;100945.41;;;10.73;100.00
46303;BME280;32029;51.358;5.628;2023-11-21T04:21:53;100934.31;;;10.67;100.00
46303;BME280;32029;51.358;5.628;2023-11-21T04:24:21;100943.31;;;10.75;100.00
46303;BME280;32029;51.358;5.628;2023-11-21T04:26:48;100953.25;;;10.76;100.00
46303;BME280;32029;51.358;5.628;2023-11-21T04:29:16;100960.13;;;10.81;100.00
46303;BME280;32029;51.358;5.628;2023-11-21T04:31:43;100952.50;;;10.68;100.00
46303;BME280;32029;51.358;5.628;2023-11-21T04:34:11;100962.91;;;10.72;100.00
46303;BME280;32029;51.358;5.628;2023-11-21T04:36:38;100957.97;;;10.68;100.00
46303;BME280;32029;51.358;5.628;2023-11-21T04:39:06;100965.66;;;10.72;100.00
46303;BME280;32029;51.358;5.628;2023-11-21T04:41:34;100973.72;;;10.74;100.00
46303;BME280;32029;51.358;5.628;2023-11-21T04:44:04;100975.78;;;10.72;100.00
46303;BME280;32029;51.358;5.628;2023-11-21T04:46:31;100958.34;;;10.65;100.00
46303;BME280;32029;51.358;5.628;2023-11-21T04:48:59;100984.56;;;10.67;100.00
46303;BME280;32029;51.358;5.628;2023-11-21T04:51:26;100986.09;;;10.70;100.00
46303;BME280;32029;51.358;5.628;2023-11-21T04:53:54;100995.13;;;10.78;100.00
46303;BME280;32029;51.358;5.628;2023-11-21T04:56:21;100995.81;;;10.81;100.00
46303;BME280;32029;51.358;5.628;2023-11-21T04:58:49;100988.16;;;10.68;100.00
46303;BME280;32029;51.358;5.628;2023-11-21T05:01:16;100995.97;;;10.79;100.00
46303;BME280;32029;51.358;5.628;2023-11-21T05:03:44;101007.88;;;10.71;100.00
46303;BME280;32029;51.358;5.628;2023-11-21T05:06:12;101002.09;;;10.66;100.00
46303;BME280;32029;51.358;5.628;2023-11-21T05:08:39;101009.13;;;10.61;100.00
46303;BME280;32029;51.358;5.628;2023-11-21T05:11:06;101007.00;;;10.48;100.00
46303;BME280;32029;51.358;5.628;2023-11-21T05:13:34;101014.44;;;10.39;100.00
46303;BME280;32029;51.358;5.628;2023-11-21T05:16:02;101003.69;;;10.29;100.00
46303;BME280;32029;51.358;5.628;2023-11-21T05:18:31;101018.94;;;10.32;100.00
46303;BME280;32029;51.358;5.628;2023-11-21T05:20:58;101024.56;;;10.39;100.00
46303;BME280;32029;51.358;5.628;2023-11-21T05:23:25;101030.13;;;10.30;100.00
46303;BME280;32029;51.358;5.628;2023-11-21T05:25:51;101026.69;;;10.28;100.00
46303;BME280;32029;51.358;5.628;2023-11-21T05:28:19;101009.94;;;10.15;100.00
46303;BME280;32029;51.358;5.628;2023-11-21T05:30:47;101033.22;;;10.27;100.00
46303;BME280;32029;51.358;5.628;2023-11-21T05:33:15;101020.84;;;10.23;100.00
46303;BME280;32029;51.358;5.628;2023-11-21T05:35:43;101016.41;;;10.22;100.00
46303;BME280;32029;51.358;5.628;2023-11-21T05:38:12;101034.84;;;10.37;100.00
46303;BME280;32029;51.358;5.628;2023-11-21T05:40:40;101036.41;;;10.39;100.00
46303;BME280;32029;51.358;5.628;2023-11-21T05:43:07;101031.75;;;10.40;100.00
46303;BME280;32029;51.358;5.628;2023-11-21T05:45:34;101039.09;;;10.47;100.00
46303;BME280;32029;51.358;5.628;2023-11-21T05:48:02;101035.00;;;10.43;100.00
46303;BME280;32029;51.358;5.628;2023-11-21T05:50:30;101022.88;;;10.38;100.00
46303;BME280;32029;51.358;5.628;2023-11-21T05:52:57;101034.56;;;10.32;100.00
46303;BME280;32029;51.358;5.628;2023-11-21T05:55:26;101035.75;;;10.29;100.00
46303;BME280;32029;51.358;5.628;2023-11-21T05:57:54;101040.03;;;10.32;100.00
46303;BME280;32029;51.358;5.628;2023-11-21T06:00:22;101041.03;;;10.39;100.00
46303;BME280;32029;51.358;5.628;2023-11-21T06:02:50;101051.81;;;10.40;100.00
46303;BME280;32029;51.358;5.628;2023-11-21T06:05:21;101037.94;;;10.34;100.00
46303;BME280;32029;51.358;5.628;2023-11-21T06:07:50;101051.16;;;10.38;100.00
46303;BME280;32029;51.358;5.628;2023-11-21T06:10:22;101050.09;;;10.39;100.00
46303;BME280;32029;51.358;5.628;2023-11-21T06:12:52;101063.59;;;10.49;100.00
46303;BME280;32029;51.358;5.628;2023-11-21T06:15:19;101071.47;;;10.52;100.00
46303;BME280;32029;51.358;5.628;2023-11-21T06:17:48;101071.81;;;10.49;100.00
46303;BME280;32029;51.358;5.628;2023-11-21T06:20:21;101074.88;;;10.54;100.00
46303;BME280;32029;51.358;5.628;2023-11-21T06:22:49;101076.22;;;10.58;100.00
46303;BME280;32029;51.358;5.628;2023-11-21T06:25:19;101077.38;;;10.64;100.00
46303;BME280;32029;51.358;5.628;2023-11-21T06:27:47;101079.97;;;10.65;100.00
46303;BME280;32029;51.358;5.628;2023-11-21T06:30:15;101076.13;;;10.74;100.00
46303;BME280;32029;51.358;5.628;2023-11-21T06:32:43;101082.25;;;10.76;100.00
46303;BME280;32029;51.358;5.628;2023-11-21T06:35:13;101075.91;;;10.76;100.00
46303;BME280;32029;51.358;5.628;2023-11-21T06:37:41;101100.41;;;10.86;100.00
46303;BME280;32029;51.358;5.628;2023-11-21T06:40:09;101095.56;;;10.88;100.00
46303;BME280;32029;51.358;5.628;2023-11-21T06:42:38;101096.31;;;10.82;100.00
46303;BME280;32029;51.358;5.628;2023-11-21T06:45:05;101102.41;;;10.92;100.00
46303;BME280;32029;51.358;5.628;2023-11-21T06:47:33;101100.69;;;10.91;100.00
46303;BME280;32029;51.358;5.628;2023-11-21T06:50:00;101114.72;;;10.96;100.00
46303;BME280;32029;51.358;5.628;2023-11-21T06:52:28;101103.50;;;10.83;100.00
46303;BME280;32029;51.358;5.628;2023-11-21T06:54:56;101107.28;;;10.82;100.00
46303;BME280;32029;51.358;5.628;2023-11-21T06:57:23;101112.66;;;10.98;100.00
46303;BME280;32029;51.358;5.628;2023-11-21T06:59:51;101110.59;;;11.00;100.00
46303;BME280;32029;51.358;5.628;2023-11-21T07:02:19;101125.28;;;11.07;100.00
46303;BME280;32029;51.358;5.628;2023-11-21T07:04:47;101117.06;;;11.07;100.00
46303;BME280;32029;51.358;5.628;2023-11-21T07:07:14;101119.13;;;11.05;100.00
46303;BME280;32029;51.358;5.628;2023-11-21T07:09:45;101127.94;;;11.23;100.00
46303;BME280;32029;51.358;5.628;2023-11-21T07:12:13;101115.47;;;11.13;100.00
46303;BME280;32029;51.358;5.628;2023-11-21T07:14:40;101124.75;;;11.12;100.00
46303;BME280;32029;51.358;5.628;2023-11-21T07:17:11;101137.53;;;11.19;100.00
46303;BME280;32029;51.358;5.628;2023-11-21T07:19:39;101149.03;;;11.23;100.00
46303;BME280;32029;51.358;5.628;2023-11-21T07:22:07;101136.69;;;11.19;100.00
46303;BME280;32029;51.358;5.628;2023-11-21T07:24:36;101156.59;;;11.21;100.00
46303;BME280;32029;51.358;5.628;2023-11-21T07:27:04;101156.91;;;11.26;100.00
46303;BME280;32029;51.358;5.628;2023-11-21T07:29:31;101148.53;;;11.19;100.00
46303;BME280;32029;51.358;5.628;2023-11-21T07:31:58;101163.56;;;11.32;100.00
46303;BME280;32029;51.358;5.628;2023-11-21T07:34:26;101173.22;;;11.27;100.00
46303;BME280;32029;51.358;5.628;2023-11-21T07:36:53;101174.16;;;11.35;100.00
46303;BME280;32029;51.358;5.628;2023-11-21T07:39:20;101170.78;;;11.33;100.00
46303;BME280;32029;51.358;5.628;2023-11-21T07:41:47;101176.91;;;11.35;100.00
46303;BME280;32029;51.358;5.628;2023-11-21T07:44:18;101168.56;;;11.28;100.00
46303;BME280;32029;51.358;5.628;2023-11-21T07:46:47;101182.25;;;11.36;100.00
46303;BME280;32029;51.358;5.628;2023-11-21T07:49:17;101190.66;;;11.35;100.00
46303;BME280;32029;51.358;5.628;2023-11-21T07:51:47;101185.56;;;11.32;100.00
46303;BME280;32029;51.358;5.628;2023-11-21T07:54:14;101190.84;;;11.33;100.00
46303;BME280;32029;51.358;5.628;2023-11-21T07:56:42;101177.66;;;11.28;100.00
46303;BME280;32029;51.358;5.628;2023-11-21T07:59:10;101189.81;;;11.34;100.00
46303;BME280;32029;51.358;5.628;2023-11-21T08:01:38;101208.97;;;11.42;100.00
46303;BME280;32029;51.358;5.628;2023-11-21T08:04:07;101208.25;;;11.48;100.00
46303;BME280;32029;51.358;5.628;2023-11-21T08:06:35;101204.78;;;11.55;100.00
46303;BME280;32029;51.358;5.628;2023-11-21T08:09:02;101216.06;;;11.60;100.00
46303;BME280;32029;51.358;5.628;2023-11-21T08:11:30;101204.03;;;11.61;100.00
46303;BME280;32029;51.358;5.628;2023-11-21T08:13:59;101224.44;;;11.66;100.00
46303;BME280;32029;51.358;5.628;2023-11-21T08:16:28;101228.53;;;11.70;100.00
46303;BME280;32029;51.358;5.628;2023-11-21T08:18:55;101223.75;;;11.64;100.00
46303;BME280;32029;51.358;5.628;2023-11-21T08:21:22;101233.25;;;11.76;100.00
46303;BME280;32029;51.358;5.628;2023-11-21T08:23:55;101238.03;;;11.83;100.00
46303;BME280;32029;51.358;5.628;2023-11-21T08:26:23;101245.75;;;11.87;100.00
46303;BME280;32029;51.358;5.628;2023-11-21T08:28:50;101233.22;;;11.85;100.00
46303;BME280;32029;51.358;5.628;2023-11-21T08:31:25;101230.47;;;11.85;100.00
46303;BME280;32029;51.358;5.628;2023-11-21T08:33:52;101240.38;;;11.94;100.00
46303;BME280;32029;51.358;5.628;2023-11-21T08:36:22;101236.78;;;12.08;100.00
46303;BME280;32029;51.358;5.628;2023-11-21T08:38:52;101237.09;;;12.13;100.00
46303;BME280;32029;51.358;5.628;2023-11-21T08:41:20;101247.69;;;12.16;100.00
46303;BME280;32029;51.358;5.628;2023-11-21T08:43:50;101242.03;;;12.18;100.00
46303;BME280;32029;51.358;5.628;2023-11-21T08:46:18;101242.97;;;12.25;100.00
46303;BME280;32029;51.358;5.628;2023-11-21T08:48:46;101241.00;;;12.34;100.00
46303;BME280;32029;51.358;5.628;2023-11-21T08:51:14;101244.50;;;12.42;100.00
46303;BME280;32029;51.358;5.628;2023-11-21T08:53:41;101236.81;;;12.38;100.00
46303;BME280;32029;51.358;5.628;2023-11-21T08:56:13;101254.00;;;12.55;100.00
46303;BME280;32029;51.358;5.628;2023-11-21T08:58:44;101252.75;;;12.57;100.00
46303;BME280;32029;51.358;5.628;2023-11-21T09:01:10;101251.50;;;12.60;100.00
46303;BME280;32029;51.358;5.628;2023-11-21T09:03:38;101253.41;;;12.59;100.00
46303;BME280;32029;51.358;5.628;2023-11-21T09:06:06;101269.84;;;12.67;100.00
46303;BME280;32029;51.358;5.628;2023-11-21T09:08:37;101263.47;;;12.67;100.00
46303;BME280;32029;51.358;5.628;2023-11-21T09:11:04;101257.22;;;12.73;100.00
46303;BME280;32029;51.358;5.628;2023-11-21T09:13:32;101254.09;;;12.61;100.00
46303;BME280;32029;51.358;5.628;2023-11-21T09:16:00;101256.16;;;12.59;100.00
46303;BME280;32029;51.358;5.628;2023-11-21T09:18:27;101272.09;;;12.79;100.00
46303;BME280;32029;51.358;5.628;2023-11-21T09:20:55;101264.16;;;12.69;100.00
46303;BME280;32029;51.358;5.628;2023-11-21T09:23:24;101284.53;;;12.89;100.00
46303;BME280;32029;51.358;5.628;2023-11-21T09:25:51;101286.81;;;13.00;100.00
46303;BME280;32029;51.358;5.628;2023-11-21T09:28:19;101283.84;;;13.17;100.00
46303;BME280;32029;51.358;5.628;2023-11-21T09:30:47;101274.56;;;13.03;100.00
46303;BME280;32029;51.358;5.628;2023-11-21T09:33:15;101279.56;;;13.14;100.00
46303;BME280;32029;51.358;5.628;2023-11-21T09:35:43;101273.13;;;13.07;100.00
46303;BME280;32029;51.358;5.628;2023-11-21T09:38:10;101277.50;;;13.02;100.00
46303;BME280;32029;51.358;5.628;2023-11-21T09:40:38;101276.91;;;13.06;100.00
46303;BME280;32029;51.358;5.628;2023-11-21T09:43:16;101293.81;;;13.18;100.00
46303;BME280;32029;51.358;5.628;2023-11-21T09:45:47;101291.72;;;13.20;100.00
46303;BME280;32029;51.358;5.628;2023-11-21T09:48:16;101301.03;;;13.34;100.00
46303;BME280;32029;51.358;5.628;2023-11-21T09:50:46;101301.91;;;13.19;100.00
46303;BME280;32029;51.358;5.628;2023-11-21T09:55:46;101313.00;;;13.26;100.00
46303;BME280;32029;51.358;5.628;2023-11-21T09:58:14;101312.84;;;13.28;100.00
46303;BME280;32029;51.358;5.628;2023-11-21T10:00:46;101325.53;;;13.43;100.00
46303;BME280;32029;51.358;5.628;2023-11-21T10:03:14;101316.31;;;13.36;100.00
46303;BME280;32029;51.358;5.628;2023-11-21T10:05:45;101331.53;;;13.47;100.00
46303;BME280;32029;51.358;5.628;2023-11-21T10:08:14;101327.50;;;13.49;100.00
46303;BME280;32029;51.358;5.628;2023-11-21T10:10:45;101333.06;;;13.35;100.00
46303;BME280;32029;51.358;5.628;2023-11-21T10:13:14;101353.94;;;13.44;100.00
46303;BME280;32029;51.358;5.628;2023-11-21T10:15:44;101345.56;;;13.52;100.00
46303;BME280;32029;51.358;5.628;2023-11-21T10:18:15;101348.41;;;13.59;100.00
46303;BME280;32029;51.358;5.628;2023-11-21T10:20:44;101345.31;;;13.47;100.00
46303;BME280;32029;51.358;5.628;2023-11-21T10:23:19;101354.50;;;13.54;100.00
46303;BME280;32029;51.358;5.628;2023-11-21T10:25:47;101350.69;;;13.55;100.00
46303;BME280;32029;51.358;5.628;2023-11-21T10:28:17;101354.97;;;13.58;100.00
46303;BME280;32029;51.358;5.628;2023-11-21T10:30:44;101360.97;;;13.61;100.00
46303;BME280;32029;51.358;5.628;2023-11-21T10:33:11;101357.66;;;13.72;100.00
46303;BME280;32029;51.358;5.628;2023-11-21T10:35:42;101353.41;;;13.70;100.00
46303;BME280;32029;51.358;5.628;2023-11-21T10:38:13;101356.44;;;13.75;100.00
46303;BME280;32029;51.358;5.628;2023-11-21T10:40:40;101346.63;;;13.72;100.00
46303;BME280;32029;51.358;5.628;2023-11-21T10:43:09;101343.50;;;13.76;100.00
46303;BME280;32029;51.358;5.628;2023-11-21T10:45:39;101360.00;;;13.90;100.00
46303;BME280;32029;51.358;5.628;2023-11-21T10:48:06;101355.59;;;13.96;100.00
46303;BME280;32029;51.358;5.628;2023-11-21T10:50:46;101347.78;;;14.00;100.00
46303;BME280;32029;51.358;5.628;2023-11-21T10:53:14;101355.44;;;14.04;100.00
46303;BME280;32029;51.358;5.628;2023-11-21T10:55:42;101351.97;;;13.95;100.00
46303;BME280;32029;51.358;5.628;2023-11-21T10:58:13;101363.09;;;14.02;100.00
46303;BME280;32029;51.358;5.628;2023-11-21T11:00:41;101359.78;;;13.92;100.00
46303;BME280;32029;51.358;5.628;2023-11-21T11:03:11;101361.78;;;13.98;100.00
46303;BME280;32029;51.358;5.628;2023-11-21T11:05:43;101349.81;;;13.91;100.00
46303;BME280;32029;51.358;5.628;2023-11-21T11:08:18;101366.91;;;14.01;100.00
46303;BME280;32029;51.358;5.628;2023-11-21T11:10:50;101364.00;;;14.09;100.00
46303;BME280;32029;51.358;5.628;2023-11-21T11:13:17;101361.97;;;14.18;100.00
46303;BME280;32029;51.358;5.628;2023-11-21T11:15:48;101370.03;;;14.19;100.00
46303;BME280;32029;51.358;5.628;2023-11-21T11:18:16;101375.44;;;14.28;100.00
46303;BME280;32029;51.358;5.628;2023-11-21T11:20:45;101363.28;;;14.22;100.00
46303;BME280;32029;51.358;5.628;2023-11-21T11:23:37;101377.84;;;14.37;100.00
46303;BME280;32029;51.358;5.628;2023-11-21T11:26:28;101378.63;;;14.31;100.00
46303;BME280;32029;51.358;5.628;2023-11-21T11:29:10;101383.72;;;14.28;100.00
46303;BME280;32029;51.358;5.628;2023-11-21T11:32:12;101343.16;;;14.07;100.00
46303;BME280;32029;51.358;5.628;2023-11-21T11:34:52;101395.66;;;14.35;100.00
46303;BME280;32029;51.358;5.628;2023-11-21T11:37:20;101390.47;;;14.25;100.00
46303;BME280;32029;51.358;5.628;2023-11-21T11:39:50;101396.78;;;14.40;100.00
46303;BME280;32029;51.358;5.628;2023-11-21T11:42:19;101392.25;;;14.33;100.00
46303;BME280;32029;51.358;5.628;2023-11-21T11:44:48;101399.94;;;14.37;100.00
46303;BME280;32029;51.358;5.628;2023-11-21T11:47:22;101406.69;;;14.35;100.00
46303;BME280;32029;51.358;5.628;2023-11-21T11:50:10;101404.75;;;14.29;100.00
46303;BME280;32029;51.358;5.628;2023-11-21T11:52:41;101422.22;;;14.36;100.00
46303;BME280;32029;51.358;5.628;2023-11-21T11:55:12;101403.28;;;14.33;100.00
46303;BME280;32029;51.358;5.628;2023-11-21T11:57:41;101413.94;;;14.36;100.00
46303;BME280;32029;51.358;5.628;2023-11-21T12:00:10;101417.16;;;14.39;100.00
46303;BME280;32029;51.358;5.628;2023-11-21T12:02:39;101399.41;;;14.27;100.00
46303;BME280;32029;51.358;5.628;2023-11-21T12:05:13;101403.69;;;14.30;100.00
46303;BME280;32029;51.358;5.628;2023-11-21T12:07:55;101423.25;;;14.35;100.00
46303;BME280;32029;51.358;5.628;2023-11-21T12:10:25;101428.28;;;14.25;100.00
46303;BME280;32029;51.358;5.628;2023-11-21T12:12:56;101425.78;;;14.30;100.00
46303;BME280;32029;51.358;5.628;2023-11-21T12:15:24;101417.88;;;14.27;100.00
46303;BME280;32029;51.358;5.628;2023-11-21T12:17:53;101416.44;;;14.31;100.00
46303;BME280;32029;51.358;5.628;2023-11-21T12:20:25;101428.81;;;14.56;100.00
46303;BME280;32029;51.358;5.628;2023-11-21T12:22:54;101431.06;;;14.74;100.00
46303;BME280;32029;51.358;5.628;2023-11-21T12:25:24;101449.69;;;14.87;100.00
46303;BME280;32029;51.358;5.628;2023-11-21T12:27:56;101444.78;;;14.89;100.00
46303;BME280;32029;51.358;5.628;2023-11-21T12:30:25;101451.00;;;14.91;100.00
46303;BME280;32029;51.358;5.628;2023-11-21T12:32:55;101452.69;;;14.92;100.00
46303;BME280;32029;51.358;5.628;2023-11-21T12:35:33;101456.97;;;14.94;100.00
46303;BME280;32029;51.358;5.628;2023-11-21T12:38:02;101443.72;;;14.90;100.00
46303;BME280;32029;51.358;5.628;2023-11-21T12:40:29;101463.06;;;14.90;100.00
46303;BME280;32029;51.358;5.628;2023-11-21T12:42:58;101451.38;;;14.88;100.00
46303;BME280;32029;51.358;5.628;2023-11-21T12:45:28;101465.06;;;14.96;100.00
46303;BME280;32029;51.358;5.628;2023-11-21T12:47:58;101459.53;;;14.96;100.00
46303;BME280;32029;51.358;5.628;2023-11-21T12:50:28;101474.78;;;14.92;100.00